createdAt,value
2017-08-12T00:00:38.650Z,1008.89
2017-08-12T00:01:38.629Z,1008.86
2017-08-12T00:02:38.614Z,1008.91
2017-08-12T00:03:38.586Z,1008.92
2017-08-12T00:04:38.566Z,1008.96
2017-08-12T00:05:38.544Z,1008.95
2017-08-12T00:06:38.521Z,1008.96
2017-08-12T00:07:38.502Z,1008.95
2017-08-12T00:08:38.481Z,1008.98
2017-08-12T00:09:38.457Z,1008.96
2017-08-12T00:10:38.447Z,1008.95
2017-08-12T00:11:38.413Z,1008.94
2017-08-12T00:12:38.391Z,1008.94
2017-08-12T00:13:38.372Z,1008.91
2017-08-12T00:14:38.351Z,1008.91
2017-08-12T00:15:38.330Z,1008.91
2017-08-12T00:16:38.311Z,1008.9
2017-08-12T00:17:38.286Z,1008.91
2017-08-12T00:18:38.262Z,1008.85
2017-08-12T00:19:38.243Z,1008.86
2017-08-12T00:20:38.222Z,1008.83
2017-08-12T00:21:38.201Z,1008.81
2017-08-12T00:22:38.179Z,1008.85
2017-08-12T00:23:38.162Z,1008.85
2017-08-12T00:24:38.135Z,1008.83
2017-08-12T00:25:38.114Z,1008.81
2017-08-12T00:26:38.098Z,1008.79
2017-08-12T00:27:38.073Z,1008.78
2017-08-12T00:28:38.050Z,1008.82
2017-08-12T00:29:38.029Z,1008.79
2017-08-12T00:30:38.012Z,1008.79
2017-08-12T00:31:37.986Z,1008.79
2017-08-12T00:32:37.965Z,1008.78
2017-08-12T00:33:37.943Z,1008.77
2017-08-12T00:34:37.923Z,1008.76
2017-08-12T00:35:37.898Z,1008.75
2017-08-12T00:36:37.878Z,1008.75
2017-08-12T00:37:37.855Z,1008.75
2017-08-12T00:38:37.836Z,1008.77
2017-08-12T00:39:37.815Z,1008.82
2017-08-12T00:40:37.793Z,1008.79
2017-08-12T00:41:37.772Z,1008.76
2017-08-12T00:42:37.757Z,1008.72
2017-08-12T00:43:37.728Z,1008.72
2017-08-12T00:44:37.706Z,1008.71
2017-08-12T00:45:37.685Z,1008.65
2017-08-12T00:46:37.666Z,1008.67
2017-08-12T00:47:37.642Z,1008.66
2017-08-12T00:48:37.622Z,1008.63
2017-08-12T00:49:37.600Z,1008.59
2017-08-12T00:50:37.578Z,1008.63
2017-08-12T00:51:37.556Z,1008.6
2017-08-12T00:52:37.537Z,1008.62
2017-08-12T00:53:37.520Z,1008.59
2017-08-12T00:54:37.497Z,1008.61
2017-08-12T00:55:37.473Z,1008.6
2017-08-12T00:56:37.458Z,1008.58
2017-08-12T00:57:37.431Z,1008.58
2017-08-12T00:58:37.408Z,1008.57
2017-08-12T00:59:37.386Z,1008.58
2017-08-12T01:00:37.365Z,1008.57
2017-08-12T01:01:37.341Z,1008.61
2017-08-12T01:02:37.320Z,1008.65
2017-08-12T01:03:37.299Z,1008.62
2017-08-12T01:04:37.277Z,1008.58
2017-08-12T01:05:37.259Z,1008.65
2017-08-12T01:06:37.236Z,1008.62
2017-08-12T01:07:37.264Z,1008.58
2017-08-12T01:08:37.190Z,1008.57
2017-08-12T01:09:37.172Z,1008.59
2017-08-12T01:10:37.150Z,1008.59
2017-08-12T01:11:37.128Z,1008.58
2017-08-12T01:12:37.107Z,1008.54
2017-08-12T01:13:37.085Z,1008.57
2017-08-12T01:14:37.064Z,1008.56
2017-08-12T01:15:37.043Z,1008.57
2017-08-12T01:16:37.022Z,1008.54
2017-08-12T01:17:37.000Z,1008.6
2017-08-12T01:18:36.979Z,1008.54
2017-08-12T01:19:36.958Z,1008.55
2017-08-12T01:20:36.935Z,1008.56
2017-08-12T01:21:36.914Z,1008.52
2017-08-12T01:22:36.892Z,1008.51
2017-08-12T01:23:36.872Z,1008.49
2017-08-12T01:24:36.850Z,1008.49
2017-08-12T01:25:36.830Z,1008.49
2017-08-12T01:26:36.807Z,1008.45
2017-08-12T01:27:36.788Z,1008.51
2017-08-12T01:28:36.764Z,1008.48
2017-08-12T01:29:36.748Z,1008.47
2017-08-12T01:30:36.720Z,1008.41
2017-08-12T01:31:36.698Z,1008.46
2017-08-12T01:32:36.682Z,1008.43
2017-08-12T01:33:36.657Z,1008.41
2017-08-12T01:34:36.638Z,1008.37
2017-08-12T01:35:36.621Z,1008.37
2017-08-12T01:36:36.591Z,1008.37
2017-08-12T01:37:36.573Z,1008.34
2017-08-12T01:38:36.551Z,1008.35
2017-08-12T01:39:36.532Z,1008.36
2017-08-12T01:40:36.561Z,1008.36
2017-08-12T01:41:36.489Z,1008.39
2017-08-12T01:42:36.463Z,1008.35
2017-08-12T01:43:36.445Z,1008.38
2017-08-12T01:44:36.421Z,1008.37
2017-08-12T01:45:36.401Z,1008.36
2017-08-12T01:46:36.379Z,1008.36
2017-08-12T01:47:36.358Z,1008.38
2017-08-12T01:48:36.358Z,1008.39
2017-08-12T01:49:36.316Z,1008.37
2017-08-12T01:50:36.292Z,1008.38
2017-08-12T01:51:36.277Z,1008.36
2017-08-12T01:52:36.299Z,1008.38
2017-08-12T01:53:36.229Z,1008.4
2017-08-12T01:54:36.206Z,1008.35
2017-08-12T01:55:36.186Z,1008.38
2017-08-12T01:56:36.163Z,1008.35
2017-08-12T01:57:36.143Z,1008.36
2017-08-12T01:58:36.123Z,1008.38
2017-08-12T01:59:36.097Z,1008.39
2017-08-12T02:00:36.079Z,1008.37
2017-08-12T02:01:36.056Z,1008.35
2017-08-12T02:02:36.034Z,1008.35
2017-08-12T02:03:36.012Z,1008.34
2017-08-12T02:04:35.997Z,1008.37
2017-08-12T02:05:35.970Z,1008.37
2017-08-12T02:06:35.950Z,1008.36
2017-08-12T02:07:35.928Z,1008.35
2017-08-12T02:08:35.906Z,1008.35
2017-08-12T02:09:35.885Z,1008.33
2017-08-12T02:10:35.863Z,1008.38
2017-08-12T02:11:35.844Z,1008.3
2017-08-12T02:12:35.820Z,1008.34
2017-08-12T02:13:35.798Z,1008.32
2017-08-12T02:14:35.779Z,1008.3
2017-08-12T02:15:35.756Z,1008.33
2017-08-12T02:16:35.737Z,1008.28
2017-08-12T02:17:35.715Z,1008.29
2017-08-12T02:18:35.690Z,1008.28
2017-08-12T02:19:35.668Z,1008.26
2017-08-12T02:20:35.648Z,1008.26
2017-08-12T02:21:35.624Z,1008.21
2017-08-12T02:22:35.602Z,1008.18
2017-08-12T02:23:35.582Z,1008.2
2017-08-12T02:24:35.566Z,1008.17
2017-08-12T02:25:35.542Z,1008.2
2017-08-12T02:26:35.568Z,1008.14
2017-08-12T02:27:35.501Z,1008.21
2017-08-12T02:28:35.475Z,1008.15
2017-08-12T02:29:35.452Z,1008.14
2017-08-12T02:30:35.432Z,1008.12
2017-08-12T02:31:35.410Z,1008.13
2017-08-12T02:32:35.387Z,1008.11
2017-08-12T02:33:35.364Z,1008.07
2017-08-12T02:34:35.349Z,1008.08
2017-08-12T02:35:35.323Z,1008.08
2017-08-12T02:36:35.306Z,1008
2017-08-12T02:37:35.279Z,1008.04
2017-08-12T02:38:35.260Z,1008.01
2017-08-12T02:39:35.240Z,1008.05
2017-08-12T02:40:35.264Z,1008.09
2017-08-12T02:41:35.190Z,1008.1
2017-08-12T02:42:35.173Z,1008.09
2017-08-12T02:43:35.152Z,1008.08
2017-08-12T02:44:35.132Z,1008.09
2017-08-12T02:45:35.108Z,1008.07
2017-08-12T02:46:35.086Z,1008.04
2017-08-12T02:47:35.065Z,1008.07
2017-08-12T02:48:35.042Z,1008.04
2017-08-12T02:49:35.020Z,1008.03
2017-08-12T02:50:35.003Z,1008.01
2017-08-12T02:51:35.028Z,1007.95
2017-08-12T02:52:34.961Z,1007.91
2017-08-12T02:53:34.940Z,1007.96
2017-08-12T02:54:34.912Z,1007.92
2017-08-12T02:55:34.892Z,1007.93
2017-08-12T02:56:34.872Z,1007.92
2017-08-12T02:57:34.850Z,1007.88
2017-08-12T02:58:34.825Z,1007.89
2017-08-12T02:59:34.804Z,1007.94
2017-08-12T03:00:34.785Z,1007.91
2017-08-12T03:01:34.762Z,1007.9
2017-08-12T03:02:34.739Z,1007.88
2017-08-12T03:03:34.721Z,1007.86
2017-08-12T03:04:34.700Z,1007.84
2017-08-12T03:05:34.675Z,1007.85
2017-08-12T03:06:34.654Z,1007.83
2017-08-12T03:07:34.634Z,1007.79
2017-08-12T03:08:34.609Z,1007.78
2017-08-12T03:09:34.588Z,1007.76
2017-08-12T03:10:34.571Z,1007.71
2017-08-12T03:11:34.545Z,1007.71
2017-08-12T03:12:34.525Z,1007.67
2017-08-12T03:13:34.503Z,1007.66
2017-08-12T03:14:34.482Z,1007.64
2017-08-12T03:15:34.461Z,1007.59
2017-08-12T03:16:34.437Z,1007.64
2017-08-12T03:17:34.421Z,1007.62
2017-08-12T03:18:34.395Z,1007.68
2017-08-12T03:19:34.374Z,1007.66
2017-08-12T03:20:34.351Z,1007.67
2017-08-12T03:21:34.329Z,1007.69
2017-08-12T03:22:34.308Z,1007.7
2017-08-12T03:23:34.286Z,1007.72
2017-08-12T03:24:34.262Z,1007.69
2017-08-12T03:25:34.242Z,1007.68
2017-08-12T03:26:34.221Z,1007.72
2017-08-12T03:27:34.200Z,1007.65
2017-08-12T03:28:34.179Z,1007.68
2017-08-12T03:29:34.156Z,1007.71
2017-08-12T03:30:34.135Z,1007.65
2017-08-12T03:31:34.113Z,1007.66
2017-08-12T03:32:34.092Z,1007.66
2017-08-12T03:33:34.070Z,1007.69
2017-08-12T03:34:34.046Z,1007.7
2017-08-12T03:35:34.026Z,1007.73
2017-08-12T03:36:34.005Z,1007.73
2017-08-12T03:37:33.990Z,1007.72
2017-08-12T03:38:33.960Z,1007.67
2017-08-12T03:39:33.940Z,1007.66
2017-08-12T03:40:33.919Z,1007.68
2017-08-12T03:41:33.898Z,1007.65
2017-08-12T03:42:33.874Z,1007.66
2017-08-12T03:43:33.853Z,1007.61
2017-08-12T03:44:33.837Z,1007.61
2017-08-12T03:45:33.807Z,1007.64
2017-08-12T03:46:33.789Z,1007.63
2017-08-12T03:47:33.767Z,1007.6
2017-08-12T03:48:33.745Z,1007.64
2017-08-12T03:49:33.724Z,1007.63
2017-08-12T03:50:33.702Z,1007.6
2017-08-12T03:51:33.682Z,1007.58
2017-08-12T03:52:33.658Z,1007.58
2017-08-12T03:53:33.641Z,1007.52
2017-08-12T03:54:33.615Z,1007.55
2017-08-12T03:55:33.598Z,1007.58
2017-08-12T03:56:33.570Z,1007.58
2017-08-12T03:57:33.554Z,1007.58
2017-08-12T03:58:33.535Z,1007.49
2017-08-12T03:59:33.508Z,1007.59
2017-08-12T04:00:33.484Z,1007.55
2017-08-12T04:01:33.467Z,1007.54
2017-08-12T04:02:33.442Z,1007.57
2017-08-12T04:03:33.420Z,1007.57
2017-08-12T04:04:33.651Z,1007.56
2017-08-12T04:05:33.375Z,1007.65
2017-08-12T04:06:33.359Z,1007.49
2017-08-12T04:07:33.338Z,1007.52
2017-08-12T04:08:33.310Z,1007.54
2017-08-12T04:09:33.294Z,1007.53
2017-08-12T04:10:33.268Z,1007.55
2017-08-12T04:11:33.247Z,1007.55
2017-08-12T04:12:33.226Z,1007.57
2017-08-12T04:13:33.205Z,1007.58
2017-08-12T04:14:33.181Z,1007.57
2017-08-12T04:15:33.161Z,1007.57
2017-08-12T04:16:33.139Z,1007.59
2017-08-12T04:17:33.117Z,1007.65
2017-08-12T04:18:33.094Z,1007.64
2017-08-12T04:19:33.073Z,1007.66
2017-08-12T04:20:33.055Z,1007.64
2017-08-12T04:21:33.033Z,1007.68
2017-08-12T04:22:33.007Z,1007.66
2017-08-12T04:23:32.986Z,1007.69
2017-08-12T04:24:32.965Z,1007.69
2017-08-12T04:25:32.944Z,1007.63
2017-08-12T04:26:32.920Z,1007.63
2017-08-12T04:27:32.898Z,1007.66
2017-08-12T04:28:32.881Z,1007.63
2017-08-12T04:29:32.855Z,1007.68
2017-08-12T04:30:32.834Z,1007.63
2017-08-12T04:31:32.811Z,1007.64
2017-08-12T04:32:32.790Z,1007.7
2017-08-12T04:33:32.768Z,1007.65
2017-08-12T04:34:32.747Z,1007.62
2017-08-12T04:35:32.726Z,1007.63
2017-08-12T04:36:32.708Z,1007.7
2017-08-12T04:37:32.682Z,1007.67
2017-08-12T04:38:32.658Z,1007.66
2017-08-12T04:39:32.641Z,1007.64
2017-08-12T04:40:32.615Z,1007.65
2017-08-12T04:41:32.646Z,1007.63
2017-08-12T04:42:32.630Z,1007.67
2017-08-12T04:43:32.553Z,1007.63
2017-08-12T04:44:32.531Z,1007.69
2017-08-12T04:45:32.559Z,1007.69
2017-08-12T04:46:32.489Z,1007.67
2017-08-12T04:47:32.465Z,1007.7
2017-08-12T04:48:32.445Z,1007.72
2017-08-12T04:49:32.424Z,1007.68
2017-08-12T04:50:32.403Z,1007.65
2017-08-12T04:51:32.381Z,1007.71
2017-08-12T04:52:32.361Z,1007.71
2017-08-12T04:53:32.338Z,1007.69
2017-08-12T04:54:32.317Z,1007.64
2017-08-12T04:55:32.295Z,1007.67
2017-08-12T04:56:32.272Z,1007.62
2017-08-12T04:57:32.249Z,1007.65
2017-08-12T04:58:32.223Z,1007.68
2017-08-12T04:59:32.209Z,1007.71
2017-08-12T05:00:32.190Z,1007.66
2017-08-12T05:01:32.165Z,1007.65
2017-08-12T05:02:32.141Z,1007.63
2017-08-12T05:03:32.120Z,1007.66
2017-08-12T05:04:32.102Z,1007.64
2017-08-12T05:05:32.081Z,1007.68
2017-08-12T05:06:32.057Z,1007.71
2017-08-12T05:07:32.039Z,1007.71
2017-08-12T05:08:32.016Z,1007.65
2017-08-12T05:09:31.992Z,1007.65
2017-08-12T05:10:31.976Z,1007.64
2017-08-12T05:11:31.954Z,1007.64
2017-08-12T05:12:31.928Z,1007.65
2017-08-12T05:13:31.911Z,1007.64
2017-08-12T05:14:31.888Z,1007.62
2017-08-12T05:15:31.866Z,1007.61
2017-08-12T05:16:31.843Z,1007.6
2017-08-12T05:17:31.818Z,1007.57
2017-08-12T05:18:31.851Z,1007.58
2017-08-12T05:19:31.779Z,1007.59
2017-08-12T05:20:31.759Z,1007.6
2017-08-12T05:21:31.738Z,1007.58
2017-08-12T05:22:31.715Z,1007.56
2017-08-12T05:23:31.692Z,1007.61
2017-08-12T05:24:31.672Z,1007.62
2017-08-12T05:25:31.653Z,1007.61
2017-08-12T05:26:31.628Z,1007.59
2017-08-12T05:27:31.609Z,1007.61
2017-08-12T05:28:31.588Z,1007.59
2017-08-12T05:29:31.565Z,1007.61
2017-08-12T05:30:31.543Z,1007.6
2017-08-12T05:31:31.524Z,1007.58
2017-08-12T05:32:31.501Z,1007.56
2017-08-12T05:33:31.481Z,1007.57
2017-08-12T05:34:31.464Z,1007.58
2017-08-12T05:35:31.440Z,1007.59
2017-08-12T05:36:31.416Z,1007.6
2017-08-12T05:37:31.393Z,1007.57
2017-08-12T05:38:31.626Z,1007.6
2017-08-12T05:39:31.349Z,1007.56
2017-08-12T05:40:31.329Z,1007.61
2017-08-12T05:41:31.309Z,1007.56
2017-08-12T05:42:31.289Z,1007.6
2017-08-12T05:43:31.519Z,1007.61
2017-08-12T05:44:31.244Z,1007.6
2017-08-12T05:45:31.222Z,1007.56
2017-08-12T05:46:31.204Z,1007.59
2017-08-12T05:47:31.201Z,1007.55
2017-08-12T05:48:31.161Z,1007.6
2017-08-12T05:49:31.140Z,1007.56
2017-08-12T05:50:31.120Z,1007.59
2017-08-12T05:51:31.093Z,1007.56
2017-08-12T05:52:31.072Z,1007.55
2017-08-12T05:53:31.052Z,1007.52
2017-08-12T05:54:31.029Z,1007.57
2017-08-12T05:55:31.010Z,1007.56
2017-08-12T05:56:30.990Z,1007.58
2017-08-12T05:57:30.965Z,1007.56
2017-08-12T05:58:30.943Z,1007.61
2017-08-12T05:59:30.922Z,1007.6
2017-08-12T06:00:30.904Z,1007.64
2017-08-12T06:01:30.880Z,1007.63
2017-08-12T06:02:30.860Z,1007.63
2017-08-12T06:03:30.837Z,1007.65
2017-08-12T06:04:30.814Z,1007.67
2017-08-12T06:05:30.792Z,1007.64
2017-08-12T06:06:30.771Z,1007.71
2017-08-12T06:07:30.749Z,1007.69
2017-08-12T06:08:30.727Z,1007.7
2017-08-12T06:09:30.711Z,1007.65
2017-08-12T06:10:30.686Z,1007.68
2017-08-12T06:11:30.667Z,1007.71
2017-08-12T06:12:30.644Z,1007.7
2017-08-12T06:13:30.671Z,1007.74
2017-08-12T06:14:30.605Z,1007.74
2017-08-12T06:15:30.578Z,1007.73
2017-08-12T06:16:30.560Z,1007.78
2017-08-12T06:17:30.536Z,1007.75
2017-08-12T06:18:30.516Z,1007.77
2017-08-12T06:19:30.492Z,1007.8
2017-08-12T06:20:30.474Z,1007.82
2017-08-12T06:21:30.452Z,1007.84
2017-08-12T06:22:30.428Z,1007.81
2017-08-12T06:23:30.406Z,1007.84
2017-08-12T06:24:30.390Z,1007.84
2017-08-12T06:25:30.364Z,1007.8
2017-08-12T06:26:30.345Z,1007.84
2017-08-12T06:27:30.323Z,1007.8
2017-08-12T06:28:30.306Z,1007.81
2017-08-12T06:29:30.278Z,1007.79
2017-08-12T06:30:30.266Z,1007.83
2017-08-12T06:31:30.236Z,1007.87
2017-08-12T06:32:30.217Z,1007.82
2017-08-12T06:33:30.194Z,1007.8
2017-08-12T06:34:30.172Z,1007.78
2017-08-12T06:35:30.151Z,1007.8
2017-08-12T06:36:30.128Z,1007.81
2017-08-12T06:37:30.109Z,1007.8
2017-08-12T06:38:30.086Z,1007.81
2017-08-12T06:39:30.066Z,1007.8
2017-08-12T06:40:30.043Z,1007.8
2017-08-12T06:41:30.022Z,1007.76
2017-08-12T06:42:30.006Z,1007.81
2017-08-12T06:43:29.978Z,1007.82
2017-08-12T06:44:29.957Z,1007.79
2017-08-12T06:45:29.934Z,1007.86
2017-08-12T06:46:29.932Z,1007.8
2017-08-12T06:47:29.891Z,1007.8
2017-08-12T06:48:29.921Z,1007.8
2017-08-12T06:49:29.853Z,1007.83
2017-08-12T06:50:29.825Z,1007.84
2017-08-12T06:51:29.806Z,1007.79
2017-08-12T06:52:29.786Z,1007.83
2017-08-12T06:53:29.763Z,1007.87
2017-08-12T06:54:29.741Z,1007.87
2017-08-12T06:55:29.769Z,1007.86
2017-08-12T06:56:29.696Z,1007.86
2017-08-12T06:57:29.675Z,1007.76
2017-08-12T06:58:29.652Z,1007.8
2017-08-12T06:59:29.630Z,1007.82
2017-08-12T07:00:29.614Z,1007.85
2017-08-12T07:01:29.587Z,1007.84
2017-08-12T07:02:29.568Z,1007.83
2017-08-12T07:03:29.547Z,1007.76
2017-08-12T07:04:29.523Z,1007.85
2017-08-12T07:05:29.501Z,1007.85
2017-08-12T07:06:29.480Z,1007.89
2017-08-12T07:07:29.459Z,1007.83
2017-08-12T07:08:29.437Z,1007.83
2017-08-12T07:09:29.423Z,1007.85
2017-08-12T07:10:29.395Z,1007.82
2017-08-12T07:11:29.372Z,1007.81
2017-08-12T07:12:29.350Z,1007.81
2017-08-12T07:13:29.329Z,1007.79
2017-08-12T07:14:29.308Z,1007.85
2017-08-12T07:15:29.286Z,1007.79
2017-08-12T07:16:29.264Z,1007.79
2017-08-12T07:17:29.238Z,1007.81
2017-08-12T07:18:29.221Z,1007.84
2017-08-12T07:19:29.203Z,1007.82
2017-08-12T07:20:29.178Z,1007.87
2017-08-12T07:21:29.155Z,1007.88
2017-08-12T07:22:29.136Z,1007.87
2017-08-12T07:23:29.113Z,1007.84
2017-08-12T07:24:29.092Z,1007.86
2017-08-12T07:25:29.071Z,1007.86
2017-08-12T07:26:29.056Z,1007.84
2017-08-12T07:27:29.026Z,1007.86
2017-08-12T07:28:29.005Z,1007.86
2017-08-12T07:29:28.984Z,1007.82
2017-08-12T07:30:29.015Z,1007.83
2017-08-12T07:31:28.941Z,1007.81
2017-08-12T07:32:28.918Z,1007.83
2017-08-12T07:33:28.897Z,1007.8
2017-08-12T07:34:28.876Z,1007.82
2017-08-12T07:35:28.853Z,1007.83
2017-08-12T07:36:28.836Z,1007.77
2017-08-12T07:37:28.816Z,1007.77
2017-08-12T07:38:28.789Z,1007.77
2017-08-12T07:39:29.018Z,1007.79
2017-08-12T07:40:28.747Z,1007.81
2017-08-12T07:41:28.726Z,1007.79
2017-08-12T07:42:28.704Z,1007.84
2017-08-12T07:43:28.681Z,1007.81
2017-08-12T07:44:28.662Z,1007.82
2017-08-12T07:45:28.639Z,1007.83
2017-08-12T07:46:28.617Z,1007.84
2017-08-12T07:47:28.596Z,1007.87
2017-08-12T07:48:28.575Z,1007.85
2017-08-12T07:49:28.550Z,1007.84
2017-08-12T07:50:28.532Z,1007.83
2017-08-12T07:51:28.512Z,1007.79
2017-08-12T07:52:28.488Z,1007.82
2017-08-12T07:53:28.467Z,1007.83
2017-08-12T07:54:28.447Z,1007.84
2017-08-12T07:55:28.424Z,1007.79
2017-08-12T07:56:28.404Z,1007.79
2017-08-12T07:57:28.382Z,1007.86
2017-08-12T07:58:28.359Z,1007.81
2017-08-12T07:59:28.390Z,1007.78
2017-08-12T08:00:28.316Z,1007.79
2017-08-12T08:01:28.294Z,1007.86
2017-08-12T08:02:28.274Z,1007.82
2017-08-12T08:03:28.254Z,1007.82
2017-08-12T08:04:28.230Z,1007.8
2017-08-12T08:05:28.208Z,1007.88
2017-08-12T08:06:28.187Z,1007.86
2017-08-12T08:07:28.168Z,1007.84
2017-08-12T08:08:28.145Z,1007.84
2017-08-12T08:09:28.126Z,1007.83
2017-08-12T08:10:28.102Z,1007.86
2017-08-12T08:11:28.079Z,1007.87
2017-08-12T08:12:28.060Z,1007.86
2017-08-12T08:13:28.039Z,1007.86
2017-08-12T08:14:28.018Z,1007.88
2017-08-12T08:15:27.994Z,1007.9
2017-08-12T08:16:27.969Z,1007.84
2017-08-12T08:17:27.951Z,1007.9
2017-08-12T08:18:27.931Z,1007.87
2017-08-12T08:19:27.908Z,1007.83
2017-08-12T08:20:27.886Z,1007.86
2017-08-12T08:21:27.869Z,1007.9
2017-08-12T08:22:27.846Z,1007.9
2017-08-12T08:23:27.822Z,1007.92
2017-08-12T08:24:27.798Z,1007.88
2017-08-12T08:25:27.781Z,1007.86
2017-08-12T08:26:27.758Z,1007.89
2017-08-12T08:27:27.737Z,1007.9
2017-08-12T08:28:27.719Z,1007.9
2017-08-12T08:29:27.691Z,1007.94
2017-08-12T08:30:27.670Z,1007.95
2017-08-12T08:31:27.653Z,1007.9
2017-08-12T08:32:27.630Z,1007.92
2017-08-12T08:33:27.609Z,1007.95
2017-08-12T08:34:27.579Z,1007.95
2017-08-12T08:35:27.562Z,1007.87
2017-08-12T08:36:27.545Z,1007.91
2017-08-12T08:37:27.521Z,1007.91
2017-08-12T08:38:27.498Z,1007.92
2017-08-12T08:39:27.479Z,1007.89
2017-08-12T08:40:27.464Z,1007.87
2017-08-12T08:41:27.434Z,1007.86
2017-08-12T08:42:27.413Z,1007.91
2017-08-12T08:43:27.392Z,1007.89
2017-08-12T08:44:27.376Z,1007.91
2017-08-12T08:45:27.360Z,1007.91
2017-08-12T08:46:27.326Z,1007.9
2017-08-12T08:47:27.315Z,1007.85
2017-08-12T08:48:27.288Z,1007.83
2017-08-12T08:49:27.270Z,1007.82
2017-08-12T08:50:27.246Z,1007.84
2017-08-12T08:51:27.224Z,1007.84
2017-08-12T08:52:27.203Z,1007.83
2017-08-12T08:53:27.182Z,1007.87
2017-08-12T08:54:27.161Z,1007.83
2017-08-12T08:55:27.144Z,1007.86
2017-08-12T08:56:27.168Z,1007.86
2017-08-12T08:57:27.101Z,1007.89
2017-08-12T08:58:27.078Z,1007.86
2017-08-12T08:59:27.057Z,1007.9
2017-08-12T09:00:27.035Z,1007.84
2017-08-12T09:01:27.020Z,1007.89
2017-08-12T09:02:26.995Z,1007.87
2017-08-12T09:03:26.974Z,1007.85
2017-08-12T09:04:26.953Z,1007.87
2017-08-12T09:05:26.934Z,1007.89
2017-08-12T09:06:26.912Z,1007.9
2017-08-12T09:07:26.897Z,1007.88
2017-08-12T09:08:26.873Z,1007.89
2017-08-12T09:09:26.850Z,1007.91
2017-08-12T09:10:26.831Z,1007.91
2017-08-12T09:11:26.813Z,1007.88
2017-08-12T09:12:26.789Z,1007.89
2017-08-12T09:13:26.771Z,1007.94
2017-08-12T09:14:26.748Z,1007.9
2017-08-12T09:15:26.728Z,1007.9
2017-08-12T09:16:26.710Z,1007.89
2017-08-12T09:17:26.685Z,1007.89
2017-08-12T09:18:26.663Z,1007.86
2017-08-12T09:19:26.644Z,1007.91
2017-08-12T09:20:26.622Z,1007.89
2017-08-12T09:21:26.603Z,1007.85
2017-08-12T09:22:26.581Z,1007.87
2017-08-12T09:23:26.563Z,1007.83
2017-08-12T09:24:26.541Z,1007.89
2017-08-12T09:25:26.523Z,1007.83
2017-08-12T09:26:26.502Z,1007.85
2017-08-12T09:27:26.479Z,1007.81
2017-08-12T09:28:26.460Z,1007.82
2017-08-12T09:29:26.434Z,1007.84
2017-08-12T09:30:26.419Z,1007.87
2017-08-12T09:31:26.396Z,1007.83
2017-08-12T09:32:26.377Z,1007.83
2017-08-12T09:33:26.357Z,1007.87
2017-08-12T09:34:26.336Z,1007.86
2017-08-12T09:35:26.315Z,1007.89
2017-08-12T09:36:26.293Z,1007.87
2017-08-12T09:37:26.271Z,1007.87
2017-08-12T09:38:26.253Z,1007.88
2017-08-12T09:39:26.230Z,1007.83
2017-08-12T09:40:26.211Z,1007.87
2017-08-12T09:41:26.193Z,1007.87
2017-08-12T09:42:26.165Z,1007.91
2017-08-12T09:43:26.149Z,1007.92
2017-08-12T09:44:26.128Z,1007.84
2017-08-12T09:45:26.104Z,1007.92
2017-08-12T09:46:26.085Z,1007.93
2017-08-12T09:47:26.064Z,1007.94
2017-08-12T09:48:26.043Z,1007.91
2017-08-12T09:49:26.026Z,1007.97
2017-08-12T09:50:26.003Z,1007.89
2017-08-12T09:51:25.984Z,1007.88
2017-08-12T09:52:25.966Z,1007.9
2017-08-12T09:53:25.939Z,1007.91
2017-08-12T09:54:25.920Z,1007.89
2017-08-12T09:55:25.896Z,1008
2017-08-12T09:56:25.880Z,1007.94
2017-08-12T09:57:25.856Z,1007.99
2017-08-12T09:58:25.835Z,1008
2017-08-12T09:59:25.815Z,1007.98
2017-08-12T10:00:25.793Z,1008
2017-08-12T10:01:25.773Z,1008.04
2017-08-12T10:02:25.748Z,1008
2017-08-12T10:03:25.729Z,1007.96
2017-08-12T10:04:25.714Z,1007.99
2017-08-12T10:05:25.698Z,1007.94
2017-08-12T10:06:25.669Z,1007.96
2017-08-12T10:07:25.648Z,1008.01
2017-08-12T10:08:25.623Z,1007.96
2017-08-12T10:09:25.605Z,1007.98
2017-08-12T10:10:25.582Z,1007.96
2017-08-12T10:11:25.561Z,1007.95
2017-08-12T10:12:25.540Z,1007.95
2017-08-12T10:13:25.519Z,1007.99
2017-08-12T10:14:25.498Z,1007.95
2017-08-12T10:15:25.480Z,1007.91
2017-08-12T10:16:25.459Z,1007.89
2017-08-12T10:17:25.435Z,1007.93
2017-08-12T10:18:25.414Z,1007.88
2017-08-12T10:19:25.393Z,1007.94
2017-08-12T10:20:25.374Z,1007.96
2017-08-12T10:21:25.351Z,1007.93
2017-08-12T10:22:25.331Z,1007.93
2017-08-12T10:23:25.310Z,1007.91
2017-08-12T10:24:25.289Z,1007.96
2017-08-12T10:25:25.276Z,1007.96
2017-08-12T10:26:25.247Z,1007.93
2017-08-12T10:27:25.224Z,1007.97
2017-08-12T10:28:25.208Z,1007.97
2017-08-12T10:29:25.185Z,1007.99
2017-08-12T10:30:25.162Z,1007.98
2017-08-12T10:31:25.146Z,1007.98
2017-08-12T10:32:25.126Z,1007.99
2017-08-12T10:33:25.102Z,1007.97
2017-08-12T10:34:25.086Z,1007.96
2017-08-12T10:35:25.060Z,1008.02
2017-08-12T10:36:25.091Z,1007.99
2017-08-12T10:37:25.019Z,1007.99
2017-08-12T10:38:25.000Z,1007.89
2017-08-12T10:39:24.981Z,1007.97
2017-08-12T10:40:24.954Z,1007.99
2017-08-12T10:41:24.938Z,1007.99
2017-08-12T10:42:24.911Z,1007.97
2017-08-12T10:43:24.892Z,1008.01
2017-08-12T10:44:24.875Z,1007.99
2017-08-12T10:45:24.850Z,1007.97
2017-08-12T10:46:24.832Z,1008.05
2017-08-12T10:47:24.812Z,1008.02
2017-08-12T10:48:24.790Z,1008.05
2017-08-12T10:49:24.818Z,1008.01
2017-08-12T10:50:24.753Z,1008.05
2017-08-12T10:51:24.727Z,1008.03
2017-08-12T10:52:24.707Z,1008.05
2017-08-12T10:53:24.685Z,1008.05
2017-08-12T10:54:24.664Z,1008.03
2017-08-12T10:55:24.641Z,1008.01
2017-08-12T10:56:24.622Z,1007.95
2017-08-12T10:57:24.605Z,1008.04
2017-08-12T10:58:24.582Z,1008.02
2017-08-12T10:59:24.561Z,1008.05
2017-08-12T11:00:24.539Z,1008.05
2017-08-12T11:01:24.518Z,1008.06
2017-08-12T11:02:24.497Z,1008.09
2017-08-12T11:03:24.477Z,1008.04
2017-08-12T11:04:24.457Z,1008.12
2017-08-12T11:05:24.431Z,1008.1
2017-08-12T11:06:24.415Z,1008.15
2017-08-12T11:07:24.398Z,1008.13
2017-08-12T11:08:24.379Z,1008.17
2017-08-12T11:09:24.356Z,1008.11
2017-08-12T11:10:24.339Z,1008.13
2017-08-12T11:11:24.310Z,1008.12
2017-08-12T11:12:24.291Z,1008.11
2017-08-12T11:13:24.270Z,1008.16
2017-08-12T11:14:24.248Z,1008.11
2017-08-12T11:15:24.227Z,1008.13
2017-08-12T11:16:24.211Z,1008.08
2017-08-12T11:17:24.188Z,1008.07
2017-08-12T11:18:24.166Z,1008.06
2017-08-12T11:19:24.154Z,1008.12
2017-08-12T11:20:24.123Z,1008.08
2017-08-12T11:21:24.410Z,1008.1
2017-08-12T11:22:24.079Z,1008.08
2017-08-12T11:23:24.061Z,1008.11
2017-08-12T11:24:24.044Z,1008.06
2017-08-12T11:25:24.022Z,1008.08
2017-08-12T11:26:23.999Z,1008.09
2017-08-12T11:27:23.979Z,1008.03
2017-08-12T11:28:23.960Z,1008.07
2017-08-12T11:29:23.938Z,1008.06
2017-08-12T11:30:23.917Z,1008.06
2017-08-12T11:31:23.893Z,1008.07
2017-08-12T11:32:23.880Z,1008.1
2017-08-12T11:33:23.853Z,1008.13
2017-08-12T11:34:23.832Z,1008.08
2017-08-12T11:35:23.811Z,1008.08
2017-08-12T11:36:23.790Z,1008.14
2017-08-12T11:37:23.769Z,1008.16
2017-08-12T11:38:23.748Z,1008.15
2017-08-12T11:39:23.727Z,1008.14
2017-08-12T11:40:23.710Z,1008.18
2017-08-12T11:41:23.688Z,1008.18
2017-08-12T11:42:23.667Z,1008.16
2017-08-12T11:43:23.656Z,1008.15
2017-08-12T11:44:23.630Z,1008.13
2017-08-12T11:45:23.606Z,1008.17
2017-08-12T11:46:23.591Z,1008.14
2017-08-12T11:47:23.564Z,1008.1
2017-08-12T11:48:23.544Z,1008.13
2017-08-12T11:49:23.526Z,1008.15
2017-08-12T11:50:23.501Z,1008.09
2017-08-12T11:51:23.486Z,1008.13
2017-08-12T11:52:23.462Z,1008.1
2017-08-12T11:53:23.440Z,1008.13
2017-08-12T11:54:23.418Z,1008.14
2017-08-12T11:55:23.397Z,1008.16
2017-08-12T11:56:23.377Z,1008.18
2017-08-12T11:57:23.356Z,1008.11
2017-08-12T11:58:23.336Z,1008.19
2017-08-12T11:59:23.315Z,1008.15
2017-08-12T12:00:23.294Z,1008.18
2017-08-12T12:01:23.274Z,1008.16
2017-08-12T12:02:23.272Z,1008.17
2017-08-12T12:03:23.233Z,1008.19
2017-08-12T12:04:23.214Z,1008.19
2017-08-12T12:05:23.191Z,1008.18
2017-08-12T12:06:23.171Z,1008.2
2017-08-12T12:07:23.150Z,1008.19
2017-08-12T12:08:23.132Z,1008.17